Saskatoon, Saskatchewan

5:17 PM CST on June 26, 2017 (GMT -0600)
Holliston | | Change Station

Elev 1660 ft 52.11 °N, 106.62 °W | Updated 4 seconds ago

Mostly Cloudy
Mostly Cloudy
78.3 °F
Feels Like 79 °F
N
2.0
Wind Variable Wind from West

Today
High -- | Low -- °F
--% Chance of Precip.
Yesterday
High -- | Low -- °F
Precip. -- in
Pressure 29.84 in
Visibility 15.0 miles
Clouds Scattered Clouds 22000 ft
Mostly Cloudy 30000 ft
Heat Index 79 °F
Dew Point 51 °F
Humidity 39%
Rainfall 0.00 in
Snow Depth Not available.
4:47 AM 9:31 PM
Waxing Crescent, 12% visible
METAR CYXE 262300Z 14017G24KT 15SM SCT220 BKN300 26/09 A2982 RMK CC3CI4 PRESFR SLP103 DENSITY ALT 3500FT
Pressure 29.84 in
Visibility 15.0 miles
Clouds Scattered Clouds 22000 ft
Mostly Cloudy 30000 ft
Heat Index 79 °F
Dew Point 51 °F
Humidity 39%
Rainfall 0.00 in
Snow Depth Not available.
4:47 AM 9:31 PM
Waxing Crescent, 12% visible
METAR CYXE 262300Z 14017G24KT 15SM SCT220 BKN300 26/09 A2982 RMK CC3CI4 PRESFR SLP103 DENSITY ALT 3500FT

Get Severe Weather Alerts

Thanks for signing up!

Be on the lookout for a verification email in your inbox.

You'll start receiving the daily forecast at 6 AM.

×

10-Day Weather Forecast

Almanac

Astronomy

Jun. 26, 2017 Rise Set
Actual Time
Civil Twilight
Nautical Twilight
Astronomical Twilight
Moon
Length of Visible Light
Length of Day
Tomorrow will be .
, % of the Moon is Illuminated

Today's Extremes

Country Highs Country Lows

Community

WunderPhotos

Category 6

Welcome to Category 6. This is the collective home for Weather Underground's featured writeups by Dr. Jeff Masters (right), Bob Henson (left), Chris Burt, and other regular contributors.

Nearby

Air Quality

  Air Quality AQ Index Pollutant
Not available.

Snow Depth

Station Depth Elevation

Earthquake Activity

City Distance Mag. Time & Date
Minimum magnitude displayed is 2.5.

Coastal Water Temperatures

Place Temperature

Stations

Nearby Weather Stations

Station Location Temp. Windchill Dew Point Humidity Wind Precip. Elev Updated Type
                   

Watches & Warnings

There are currently no watches in effect.